BAW745 LSGG-EGLL
Flight info
| Callsign | BAW745 |
|---|---|
| Flight time | 1h 12m |
| Altitude | 38000 |
| Route | DIPIR1A DIPIR T37 IBABA DCT TUTAX DCT OBURO DCT OKRIX DCT CLM DCT KOPOR DCT ABNUR DCT DIMAL DCT ALESO ALESO1H |
| Aircraft | A21N/M-SDE3FGHIJ1LRWXYZ/SB1G1 |
Departure
| Time | 2026-05-06 17:40 |
|---|---|
| Airport | Geneva International Airport (LSGG) |
Arrival
| Time | 2026-05-06 18:53 |
|---|---|
| Airport | London Heathrow Airport (EGLL) |
| Time | Latitude | Longitude | Altitude | Speed | Heading |
|---|---|---|---|---|---|
| 2026-05-06 17:24 | 46.23382 | 6.11038 | 1404 ft | 0 kts | 135° |
| 2026-05-06 17:32 | 46.23385 | 6.11034 | 1401 ft | 2 kts | 135° |
| 2026-05-06 17:33 | 46.23398 | 6.11014 | 1396 ft | 3 kts | 127° |
| 2026-05-06 17:33 | 46.23410 | 6.10991 | 1403 ft | 3 kts | 113° |
| 2026-05-06 17:33 | 46.23417 | 6.10965 | 1402 ft | 3 kts | 89° |
| 2026-05-06 17:33 | 46.23415 | 6.10940 | 1402 ft | 2 kts | 52° |
| 2026-05-06 17:34 | 46.23413 | 6.10933 | 1403 ft | 0 kts | 45° |
| 2026-05-06 17:36 | 46.23452 | 6.10987 | 1396 ft | 13 kts | 44° |
| 2026-05-06 17:36 | 46.23533 | 6.11105 | 1399 ft | 16 kts | 46° |
| 2026-05-06 17:36 | 46.23620 | 6.11141 | 1396 ft | 11 kts | 324° |
| 2026-05-06 17:36 | 46.23658 | 6.11084 | 1386 ft | 9 kts | 315° |
| 2026-05-06 17:37 | 46.23761 | 6.11161 | 1380 ft | 20 kts | 46° |
| 2026-05-06 17:37 | 46.23839 | 6.11276 | 1375 ft | 26 kts | 45° |
| 2026-05-06 17:37 | 46.23973 | 6.11472 | 1372 ft | 27 kts | 44° |
| 2026-05-06 17:37 | 46.24109 | 6.11673 | 1367 ft | 28 kts | 45° |
| 2026-05-06 17:38 | 46.24251 | 6.11881 | 1362 ft | 28 kts | 45° |
| 2026-05-06 17:38 | 46.24388 | 6.12082 | 1368 ft | 28 kts | 45° |
| 2026-05-06 17:38 | 46.24522 | 6.12279 | 1370 ft | 28 kts | 45° |
| 2026-05-06 17:38 | 46.24651 | 6.12469 | 1366 ft | 27 kts | 46° |
| 2026-05-06 17:39 | 46.24769 | 6.12640 | 1362 ft | 17 kts | 40° |
| 2026-05-06 17:39 | 46.24866 | 6.12697 | 1364 ft | 12 kts | 15° |
| 2026-05-06 17:39 | 46.24948 | 6.12728 | 1368 ft | 12 kts | 7° |
| 2026-05-06 17:39 | 46.24993 | 6.12659 | 1370 ft | 10 kts | 265° |
| 2026-05-06 17:40 | 46.24947 | 6.12572 | 1372 ft | 14 kts | 225° |
| 2026-05-06 17:40 | 46.24661 | 6.12151 | 1372 ft | 105 kts | 225° |
| 2026-05-06 17:40 | 46.23966 | 6.11149 | 1463 ft | 167 kts | 224° |
| 2026-05-06 17:40 | 46.23127 | 6.09917 | 2257 ft | 179 kts | 228° |
| 2026-05-06 17:41 | 46.22266 | 6.08531 | 3238 ft | 191 kts | 229° |
| 2026-05-06 17:41 | 46.21347 | 6.07038 | 4107 ft | 207 kts | 227° |
| 2026-05-06 17:41 | 46.20337 | 6.05446 | 4824 ft | 225 kts | 235° |
| 2026-05-06 17:41 | 46.19795 | 6.03255 | 5410 ft | 246 kts | 266° |
| 2026-05-06 17:42 | 46.20129 | 6.00780 | 6170 ft | 260 kts | 294° |
| 2026-05-06 17:42 | 46.21307 | 5.98736 | 7022 ft | 272 kts | 321° |
| 2026-05-06 17:42 | 46.22895 | 5.97200 | 8060 ft | 277 kts | 326° |
| 2026-05-06 17:42 | 46.24554 | 5.95746 | 9099 ft | 280 kts | 327° |
| 2026-05-06 17:43 | 46.26225 | 5.94266 | 10103 ft | 284 kts | 326° |
| 2026-05-06 17:43 | 46.27947 | 5.92694 | 10690 ft | 304 kts | 325° |
| 2026-05-06 17:43 | 46.29791 | 5.90967 | 11070 ft | 327 kts | 324° |
| 2026-05-06 17:43 | 46.31704 | 5.89156 | 11730 ft | 337 kts | 324° |
| 2026-05-06 17:44 | 46.33673 | 5.87288 | 12622 ft | 340 kts | 324° |
| 2026-05-06 17:44 | 46.35664 | 5.85398 | 13502 ft | 345 kts | 324° |
| 2026-05-06 17:44 | 46.37684 | 5.83478 | 14269 ft | 349 kts | 324° |
| 2026-05-06 17:44 | 46.39725 | 5.81536 | 15031 ft | 353 kts | 325° |
| 2026-05-06 17:45 | 46.41823 | 5.79629 | 15785 ft | 359 kts | 329° |
| 2026-05-06 17:45 | 46.44021 | 5.77866 | 16530 ft | 363 kts | 329° |
| 2026-05-06 17:45 | 46.46245 | 5.76079 | 17262 ft | 368 kts | 329° |
| 2026-05-06 17:45 | 46.48491 | 5.74270 | 18014 ft | 371 kts | 329° |
| 2026-05-06 17:46 | 46.50759 | 5.72439 | 18681 ft | 374 kts | 329° |
| 2026-05-06 17:46 | 46.53037 | 5.70598 | 19403 ft | 375 kts | 329° |
| 2026-05-06 17:46 | 46.55326 | 5.68745 | 20061 ft | 378 kts | 329° |
| 2026-05-06 17:46 | 46.57632 | 5.66873 | 20723 ft | 381 kts | 330° |
| 2026-05-06 17:47 | 46.59954 | 5.64981 | 21344 ft | 384 kts | 330° |
| 2026-05-06 17:47 | 46.62287 | 5.63079 | 21991 ft | 387 kts | 330° |
| 2026-05-06 17:47 | 46.64644 | 5.61156 | 22589 ft | 390 kts | 330° |
| 2026-05-06 17:47 | 46.67021 | 5.59214 | 23201 ft | 393 kts | 330° |
| 2026-05-06 17:48 | 46.69423 | 5.57266 | 23746 ft | 397 kts | 331° |
| 2026-05-06 17:48 | 46.71848 | 5.55315 | 24230 ft | 400 kts | 331° |
| 2026-05-06 17:48 | 46.74292 | 5.53349 | 24702 ft | 403 kts | 331° |
| 2026-05-06 17:48 | 46.76745 | 5.51338 | 25157 ft | 407 kts | 330° |
| 2026-05-06 17:49 | 46.79206 | 5.49269 | 25612 ft | 410 kts | 330° |
| 2026-05-06 17:49 | 46.81685 | 5.47172 | 26043 ft | 413 kts | 330° |
| 2026-05-06 17:49 | 46.84149 | 5.45077 | 26449 ft | 417 kts | 329° |
| 2026-05-06 17:49 | 46.86441 | 5.42455 | 26855 ft | 422 kts | 315° |
| 2026-05-06 17:50 | 46.88266 | 5.39073 | 27217 ft | 429 kts | 302° |
| 2026-05-06 17:50 | 46.89515 | 5.35094 | 27582 ft | 434 kts | 291° |
| 2026-05-06 17:50 | 46.90559 | 5.30936 | 27952 ft | 437 kts | 291° |
| 2026-05-06 17:50 | 46.91833 | 5.26899 | 28307 ft | 438 kts | 301° |
| 2026-05-06 17:51 | 46.93553 | 5.23215 | 28660 ft | 439 kts | 311° |
| 2026-05-06 17:51 | 46.95665 | 5.19985 | 28997 ft | 440 kts | 320° |
| 2026-05-06 17:51 | 46.97956 | 5.16990 | 29322 ft | 443 kts | 320° |
| 2026-05-06 17:51 | 47.00254 | 5.13966 | 29661 ft | 446 kts | 320° |
| 2026-05-06 17:52 | 47.02566 | 5.10909 | 29994 ft | 449 kts | 319° |
| 2026-05-06 17:52 | 47.04889 | 5.07830 | 30266 ft | 451 kts | 319° |
| 2026-05-06 17:52 | 47.07223 | 5.04734 | 30551 ft | 454 kts | 319° |
| 2026-05-06 17:52 | 47.09570 | 5.01617 | 30824 ft | 457 kts | 319° |
| 2026-05-06 17:53 | 47.11931 | 4.98478 | 31104 ft | 459 kts | 319° |
| 2026-05-06 17:53 | 47.14299 | 4.95324 | 31445 ft | 460 kts | 318° |
| 2026-05-06 17:53 | 47.16672 | 4.92161 | 31798 ft | 461 kts | 318° |
| 2026-05-06 17:53 | 47.19045 | 4.88994 | 32194 ft | 460 kts | 317° |
| 2026-05-06 17:54 | 47.21408 | 4.85836 | 32607 ft | 459 kts | 317° |
| 2026-05-06 17:54 | 47.23763 | 4.82682 | 33032 ft | 457 kts | 317° |
| 2026-05-06 17:54 | 47.26113 | 4.79530 | 33422 ft | 456 kts | 316° |
| 2026-05-06 17:54 | 47.28456 | 4.76380 | 33803 ft | 456 kts | 316° |
| 2026-05-06 17:55 | 47.30792 | 4.73236 | 34133 ft | 455 kts | 316° |
| 2026-05-06 17:55 | 47.33127 | 4.70090 | 34428 ft | 455 kts | 316° |
| 2026-05-06 17:55 | 47.35427 | 4.66986 | 34707 ft | 455 kts | 316° |
| 2026-05-06 17:55 | 47.37754 | 4.63841 | 34993 ft | 454 kts | 316° |
| 2026-05-06 17:56 | 47.40095 | 4.60672 | 35267 ft | 454 kts | 316° |
| 2026-05-06 17:56 | 47.42417 | 4.57524 | 35514 ft | 454 kts | 316° |
| 2026-05-06 17:56 | 47.45527 | 4.53303 | 35838 ft | 454 kts | 316° |
| 2026-05-06 17:57 | 47.47854 | 4.50141 | 36073 ft | 454 kts | 316° |
| 2026-05-06 17:57 | 47.50178 | 4.46979 | 36304 ft | 454 kts | 316° |
| 2026-05-06 17:57 | 47.52500 | 4.43817 | 36535 ft | 454 kts | 315° |
| 2026-05-06 17:57 | 47.54818 | 4.40655 | 36755 ft | 454 kts | 315° |
| 2026-05-06 17:58 | 47.57142 | 4.37482 | 36966 ft | 454 kts | 315° |
| 2026-05-06 17:58 | 47.59307 | 4.34523 | 37167 ft | 454 kts | 315° |
| 2026-05-06 17:58 | 47.61619 | 4.31326 | 37376 ft | 453 kts | 314° |
| 2026-05-06 17:58 | 47.63796 | 4.27995 | 37572 ft | 452 kts | 310° |
| 2026-05-06 17:59 | 47.65864 | 4.24448 | 37760 ft | 452 kts | 307° |
| 2026-05-06 17:59 | 47.67782 | 4.20762 | 37929 ft | 451 kts | 304° |
| 2026-05-06 17:59 | 47.71300 | 4.13081 | 37926 ft | 449 kts | 302° |
| 2026-05-06 18:00 | 47.74779 | 4.05370 | 37923 ft | 449 kts | 302° |
| 2026-05-06 18:00 | 47.78262 | 3.97664 | 37921 ft | 449 kts | 302° |
| 2026-05-06 18:01 | 47.81721 | 3.90001 | 37919 ft | 449 kts | 302° |
| 2026-05-06 18:01 | 47.85196 | 3.82281 | 37914 ft | 449 kts | 302° |
| 2026-05-06 18:02 | 47.88667 | 3.74549 | 37922 ft | 449 kts | 302° |
| 2026-05-06 18:02 | 47.92128 | 3.66815 | 37919 ft | 448 kts | 302° |
| 2026-05-06 18:03 | 47.95890 | 3.59679 | 37915 ft | 451 kts | 315° |
| 2026-05-06 18:03 | 48.00966 | 3.54180 | 37910 ft | 454 kts | 331° |
| 2026-05-06 18:04 | 48.06771 | 3.50455 | 37912 ft | 455 kts | 336° |
| 2026-05-06 18:04 | 48.12617 | 3.46835 | 37910 ft | 455 kts | 336° |
| 2026-05-06 18:05 | 48.18415 | 3.43220 | 37907 ft | 455 kts | 336° |
| 2026-05-06 18:05 | 48.24258 | 3.39567 | 37919 ft | 455 kts | 336° |
| 2026-05-06 18:06 | 48.30100 | 3.35905 | 37916 ft | 455 kts | 336° |
| 2026-05-06 18:06 | 48.35943 | 3.32234 | 37923 ft | 455 kts | 336° |
| 2026-05-06 18:07 | 48.41788 | 3.28552 | 37920 ft | 455 kts | 336° |
| 2026-05-06 18:07 | 48.47627 | 3.24864 | 37923 ft | 455 kts | 336° |
| 2026-05-06 18:08 | 48.53464 | 3.21169 | 37923 ft | 455 kts | 336° |
| 2026-05-06 18:08 | 48.59204 | 3.17527 | 37921 ft | 454 kts | 336° |
| 2026-05-06 18:09 | 48.65031 | 3.13821 | 37927 ft | 454 kts | 336° |
| 2026-05-06 18:09 | 48.70845 | 3.10113 | 37924 ft | 453 kts | 336° |
| 2026-05-06 18:10 | 48.76659 | 3.06397 | 37922 ft | 453 kts | 336° |
| 2026-05-06 18:10 | 48.82447 | 3.02618 | 37920 ft | 452 kts | 333° |
| 2026-05-06 18:11 | 48.88008 | 2.98306 | 37916 ft | 451 kts | 329° |
| 2026-05-06 18:11 | 48.89043 | 2.97417 | 37915 ft | 451 kts | 329° |
| 2026-05-06 18:12 | 48.91444 | 2.95314 | 37919 ft | 451 kts | 328° |
| 2026-05-06 18:12 | 48.96447 | 2.90924 | 37924 ft | 451 kts | 328° |
| 2026-05-06 18:13 | 49.01884 | 2.86153 | 37926 ft | 451 kts | 329° |
| 2026-05-06 18:13 | 49.07314 | 2.81380 | 37931 ft | 451 kts | 329° |
| 2026-05-06 18:14 | 49.12745 | 2.76594 | 37931 ft | 450 kts | 328° |
| 2026-05-06 18:14 | 49.18171 | 2.71801 | 37929 ft | 450 kts | 328° |
| 2026-05-06 18:15 | 49.23590 | 2.67001 | 37931 ft | 450 kts | 328° |
| 2026-05-06 18:15 | 49.29009 | 2.62188 | 37931 ft | 450 kts | 328° |
| 2026-05-06 18:16 | 49.34384 | 2.57403 | 37928 ft | 450 kts | 328° |
| 2026-05-06 18:16 | 49.39795 | 2.52572 | 37933 ft | 450 kts | 328° |
| 2026-05-06 18:17 | 49.45196 | 2.47737 | 37936 ft | 449 kts | 328° |
| 2026-05-06 18:17 | 49.50598 | 2.42889 | 37936 ft | 449 kts | 328° |
| 2026-05-06 18:18 | 49.56043 | 2.38164 | 37939 ft | 449 kts | 330° |
| 2026-05-06 18:18 | 49.61533 | 2.33578 | 37940 ft | 449 kts | 330° |
| 2026-05-06 18:19 | 49.67013 | 2.28955 | 37939 ft | 448 kts | 330° |
| 2026-05-06 18:19 | 49.72476 | 2.24312 | 37942 ft | 448 kts | 330° |
| 2026-05-06 18:20 | 49.77934 | 2.19658 | 37934 ft | 448 kts | 329° |
| 2026-05-06 18:20 | 49.83390 | 2.14993 | 37939 ft | 448 kts | 329° |
| 2026-05-06 18:21 | 49.88836 | 2.10326 | 37941 ft | 447 kts | 329° |
| 2026-05-06 18:21 | 49.94231 | 2.05690 | 37941 ft | 447 kts | 329° |
| 2026-05-06 18:22 | 49.99671 | 2.01004 | 37939 ft | 447 kts | 329° |
| 2026-05-06 18:22 | 50.05112 | 1.96305 | 37941 ft | 447 kts | 329° |
| 2026-05-06 18:23 | 50.10543 | 1.91602 | 37946 ft | 447 kts | 329° |
| 2026-05-06 18:23 | 50.15899 | 1.86689 | 37944 ft | 446 kts | 324° |
| 2026-05-06 18:24 | 50.20669 | 1.80548 | 37958 ft | 444 kts | 314° |
| 2026-05-06 18:24 | 50.25075 | 1.73793 | 37960 ft | 444 kts | 314° |
| 2026-05-06 18:25 | 50.29492 | 1.67050 | 37966 ft | 444 kts | 314° |
| 2026-05-06 18:25 | 50.33847 | 1.60386 | 37960 ft | 427 kts | 314° |
| 2026-05-06 18:26 | 50.38009 | 1.53997 | 37805 ft | 422 kts | 314° |
| 2026-05-06 18:26 | 50.40101 | 1.50777 | 37326 ft | 422 kts | 314° |
| 2026-05-06 18:26 | 50.42188 | 1.47559 | 36743 ft | 419 kts | 314° |
| 2026-05-06 18:27 | 50.44257 | 1.44366 | 36178 ft | 416 kts | 314° |
| 2026-05-06 18:27 | 50.46309 | 1.41195 | 35627 ft | 412 kts | 315° |
| 2026-05-06 18:27 | 50.48347 | 1.38043 | 35084 ft | 411 kts | 315° |
| 2026-05-06 18:27 | 50.50368 | 1.34882 | 34558 ft | 411 kts | 314° |
| 2026-05-06 18:28 | 50.52328 | 1.31601 | 34036 ft | 412 kts | 312° |
| 2026-05-06 18:28 | 50.54259 | 1.28268 | 33439 ft | 412 kts | 312° |
| 2026-05-06 18:28 | 50.56192 | 1.24930 | 32840 ft | 413 kts | 312° |
| 2026-05-06 18:28 | 50.58136 | 1.21595 | 32252 ft | 414 kts | 313° |
| 2026-05-06 18:29 | 50.60148 | 1.18328 | 31675 ft | 417 kts | 314° |
| 2026-05-06 18:29 | 50.62212 | 1.15107 | 31112 ft | 419 kts | 314° |
| 2026-05-06 18:29 | 50.64290 | 1.11879 | 30565 ft | 420 kts | 314° |
| 2026-05-06 18:29 | 50.66353 | 1.08658 | 30027 ft | 418 kts | 314° |
| 2026-05-06 18:30 | 50.68402 | 1.05433 | 29391 ft | 414 kts | 314° |
| 2026-05-06 18:30 | 50.70423 | 1.02238 | 28775 ft | 409 kts | 314° |
| 2026-05-06 18:30 | 50.72414 | 0.99077 | 28153 ft | 404 kts | 314° |
| 2026-05-06 18:30 | 50.73718 | 0.97003 | 27779 ft | 402 kts | 314° |
| 2026-05-06 18:31 | 50.75682 | 0.93876 | 27193 ft | 399 kts | 314° |
| 2026-05-06 18:31 | 50.77624 | 0.90781 | 26619 ft | 395 kts | 314° |
| 2026-05-06 18:31 | 50.79547 | 0.87712 | 26057 ft | 391 kts | 314° |
| 2026-05-06 18:31 | 50.81456 | 0.84662 | 25508 ft | 389 kts | 314° |
| 2026-05-06 18:32 | 50.83351 | 0.81633 | 24967 ft | 385 kts | 314° |
| 2026-05-06 18:32 | 50.85225 | 0.78631 | 24439 ft | 382 kts | 313° |
| 2026-05-06 18:32 | 50.87086 | 0.75647 | 23915 ft | 380 kts | 313° |
| 2026-05-06 18:32 | 50.88933 | 0.72682 | 23368 ft | 376 kts | 313° |
| 2026-05-06 18:33 | 50.90760 | 0.69747 | 22760 ft | 372 kts | 313° |
| 2026-05-06 18:33 | 50.92568 | 0.66837 | 22162 ft | 369 kts | 313° |
| 2026-05-06 18:33 | 50.94359 | 0.63951 | 21577 ft | 366 kts | 313° |
| 2026-05-06 18:33 | 50.96135 | 0.61085 | 21002 ft | 362 kts | 313° |
| 2026-05-06 18:34 | 50.97870 | 0.58284 | 20430 ft | 359 kts | 313° |
| 2026-05-06 18:34 | 50.99609 | 0.55471 | 19880 ft | 356 kts | 313° |
| 2026-05-06 18:34 | 51.01332 | 0.52681 | 19337 ft | 353 kts | 313° |
| 2026-05-06 18:34 | 51.03043 | 0.49907 | 18797 ft | 350 kts | 313° |
| 2026-05-06 18:35 | 51.04743 | 0.47148 | 18198 ft | 349 kts | 313° |
| 2026-05-06 18:35 | 51.06436 | 0.44399 | 17514 ft | 347 kts | 313° |
| 2026-05-06 18:35 | 51.08137 | 0.41684 | 16843 ft | 346 kts | 315° |
| 2026-05-06 18:35 | 51.09245 | 0.39988 | 16441 ft | 345 kts | 315° |
| 2026-05-06 18:36 | 51.10983 | 0.37369 | 15841 ft | 343 kts | 316° |
| 2026-05-06 18:36 | 51.12712 | 0.34764 | 15207 ft | 342 kts | 316° |
| 2026-05-06 18:36 | 51.14431 | 0.32160 | 14656 ft | 339 kts | 315° |
| 2026-05-06 18:36 | 51.16120 | 0.29587 | 14171 ft | 334 kts | 315° |
| 2026-05-06 18:37 | 51.17782 | 0.27046 | 13678 ft | 329 kts | 315° |
| 2026-05-06 18:37 | 51.19422 | 0.24533 | 13144 ft | 325 kts | 315° |
| 2026-05-06 18:37 | 51.21042 | 0.22046 | 12614 ft | 321 kts | 315° |
| 2026-05-06 18:37 | 51.22645 | 0.19600 | 12117 ft | 317 kts | 316° |
| 2026-05-06 18:38 | 51.24200 | 0.17238 | 11620 ft | 314 kts | 316° |
| 2026-05-06 18:38 | 51.25716 | 0.14929 | 11132 ft | 310 kts | 316° |
| 2026-05-06 18:38 | 51.27271 | 0.12558 | 10641 ft | 308 kts | 316° |
| 2026-05-06 18:38 | 51.28811 | 0.10207 | 10147 ft | 305 kts | 316° |
| 2026-05-06 18:39 | 51.30339 | 0.07874 | 9647 ft | 302 kts | 316° |
| 2026-05-06 18:39 | 51.31853 | 0.05559 | 9100 ft | 300 kts | 316° |
| 2026-05-06 18:39 | 51.33339 | 0.03239 | 8575 ft | 298 kts | 310° |
| 2026-05-06 18:40 | 51.34593 | -0.02698 | 8008 ft | 278 kts | 276° |
| 2026-05-06 18:40 | 51.34769 | -0.05678 | 7989 ft | 261 kts | 276° |
| 2026-05-06 18:40 | 51.34935 | -0.08580 | 7995 ft | 265 kts | 276° |
| 2026-05-06 18:40 | 51.35101 | -0.11515 | 7993 ft | 264 kts | 276° |
| 2026-05-06 18:41 | 51.35265 | -0.14433 | 7994 ft | 263 kts | 276° |
| 2026-05-06 18:41 | 51.35426 | -0.17349 | 7993 ft | 264 kts | 276° |
| 2026-05-06 18:41 | 51.35584 | -0.20265 | 7994 ft | 263 kts | 276° |
| 2026-05-06 18:41 | 51.35740 | -0.23187 | 7992 ft | 263 kts | 276° |
| 2026-05-06 18:42 | 51.35893 | -0.26103 | 7992 ft | 264 kts | 276° |
| 2026-05-06 18:42 | 51.36045 | -0.29028 | 7995 ft | 263 kts | 276° |
| 2026-05-06 18:42 | 51.36194 | -0.31942 | 7993 ft | 263 kts | 276° |
| 2026-05-06 18:42 | 51.36338 | -0.34851 | 7992 ft | 262 kts | 276° |
| 2026-05-06 18:43 | 51.36480 | -0.37764 | 7994 ft | 262 kts | 276° |
| 2026-05-06 18:43 | 51.36620 | -0.40674 | 7994 ft | 262 kts | 276° |
| 2026-05-06 18:43 | 51.36756 | -0.43547 | 7991 ft | 254 kts | 276° |
| 2026-05-06 18:43 | 51.36883 | -0.46324 | 7996 ft | 250 kts | 276° |
| 2026-05-06 18:44 | 51.37011 | -0.49117 | 7993 ft | 252 kts | 276° |
| 2026-05-06 18:44 | 51.37138 | -0.51916 | 7988 ft | 252 kts | 276° |
| 2026-05-06 18:44 | 51.37264 | -0.54720 | 7747 ft | 254 kts | 276° |
| 2026-05-06 18:44 | 51.37388 | -0.57516 | 7327 ft | 256 kts | 276° |
| 2026-05-06 18:45 | 51.37513 | -0.60347 | 7053 ft | 251 kts | 276° |
| 2026-05-06 18:45 | 51.37631 | -0.63052 | 6992 ft | 236 kts | 276° |
| 2026-05-06 18:45 | 51.37743 | -0.65664 | 6931 ft | 240 kts | 276° |
| 2026-05-06 18:45 | 51.37858 | -0.68348 | 6639 ft | 241 kts | 276° |
| 2026-05-06 18:46 | 51.37970 | -0.71011 | 6304 ft | 238 kts | 276° |
| 2026-05-06 18:46 | 51.38077 | -0.73594 | 6029 ft | 227 kts | 276° |
| 2026-05-06 18:46 | 51.38179 | -0.76046 | 5749 ft | 216 kts | 279° |
| 2026-05-06 18:46 | 51.38719 | -0.78158 | 5473 ft | 201 kts | 315° |
| 2026-05-06 18:47 | 51.39869 | -0.79256 | 5133 ft | 193 kts | 352° |
| 2026-05-06 18:47 | 51.41200 | -0.79355 | 4750 ft | 192 kts | 0° |
| 2026-05-06 18:47 | 51.42539 | -0.79327 | 4332 ft | 193 kts | 1° |
| 2026-05-06 18:47 | 51.43872 | -0.79179 | 3910 ft | 193 kts | 18° |
| 2026-05-06 18:48 | 51.44974 | -0.78048 | 3619 ft | 185 kts | 40° |
| 2026-05-06 18:48 | 51.45910 | -0.76688 | 3318 ft | 178 kts | 41° |
| 2026-05-06 18:48 | 51.46800 | -0.75325 | 3094 ft | 179 kts | 48° |
| 2026-05-06 18:48 | 51.47379 | -0.73571 | 2993 ft | 181 kts | 71° |
| 2026-05-06 18:49 | 51.47605 | -0.71583 | 2978 ft | 181 kts | 82° |
| 2026-05-06 18:49 | 51.47668 | -0.69553 | 2760 ft | 182 kts | 86° |
| 2026-05-06 18:49 | 51.47677 | -0.67546 | 2491 ft | 177 kts | 86° |
| 2026-05-06 18:49 | 51.47684 | -0.65667 | 2263 ft | 164 kts | 86° |
| 2026-05-06 18:50 | 51.47692 | -0.63862 | 2038 ft | 162 kts | 86° |
| 2026-05-06 18:50 | 51.47698 | -0.62048 | 1804 ft | 163 kts | 86° |
| 2026-05-06 18:50 | 51.47706 | -0.60230 | 1578 ft | 163 kts | 86° |
| 2026-05-06 18:50 | 51.47712 | -0.58468 | 1360 ft | 152 kts | 86° |
| 2026-05-06 18:51 | 51.47716 | -0.56845 | 1154 ft | 139 kts | 85° |
| 2026-05-06 18:51 | 51.47724 | -0.55324 | 964 ft | 136 kts | 85° |
| 2026-05-06 18:51 | 51.47729 | -0.53819 | 777 ft | 135 kts | 86° |
| 2026-05-06 18:51 | 51.47734 | -0.52338 | 588 ft | 131 kts | 85° |
| 2026-05-06 18:52 | 51.47740 | -0.50868 | 425 ft | 131 kts | 86° |
| 2026-05-06 18:52 | 51.47744 | -0.49421 | 242 ft | 129 kts | 85° |
| 2026-05-06 18:52 | 51.47750 | -0.47962 | 102 ft | 130 kts | 87° |
| 2026-05-06 18:52 | 51.47757 | -0.46728 | 93 ft | 76 kts | 90° |
| 2026-05-06 18:53 | 51.47757 | -0.46297 | 91 ft | 15 kts | 89° |
| 2026-05-06 18:53 | 51.47704 | -0.46147 | 90 ft | 14 kts | 144° |
| 2026-05-06 18:53 | 51.47638 | -0.46074 | 91 ft | 8 kts | 146° |
| 2026-05-06 18:53 | 51.47574 | -0.46069 | 89 ft | 7 kts | 197° |
| 2026-05-06 18:54 | 51.47524 | -0.46112 | 88 ft | 10 kts | 226° |
| 2026-05-06 18:54 | 51.47515 | -0.46243 | 87 ft | 14 kts | 269° |
| 2026-05-06 18:54 | 51.47515 | -0.46421 | 87 ft | 18 kts | 271° |
| 2026-05-06 18:54 | 51.47515 | -0.46636 | 87 ft | 16 kts | 268° |
| 2026-05-06 18:55 | 51.47499 | -0.46758 | 88 ft | 12 kts | 250° |
| 2026-05-06 18:55 | 51.47494 | -0.46915 | 87 ft | 16 kts | 270° |
| 2026-05-06 18:55 | 51.47492 | -0.47117 | 87 ft | 20 kts | 270° |
| 2026-05-06 18:55 | 51.47491 | -0.47360 | 87 ft | 23 kts | 270° |
| 2026-05-06 18:56 | 51.47490 | -0.47638 | 87 ft | 25 kts | 270° |
| 2026-05-06 18:56 | 51.47489 | -0.47877 | 87 ft | 23 kts | 269° |
| 2026-05-06 18:56 | 51.47488 | -0.48147 | 89 ft | 26 kts | 270° |
| 2026-05-06 18:56 | 51.47483 | -0.48326 | 90 ft | 10 kts | 251° |
| 2026-05-06 18:57 | 51.47408 | -0.48362 | 87 ft | 14 kts | 177° |
| 2026-05-06 18:57 | 51.47296 | -0.48361 | 87 ft | 18 kts | 180° |
| 2026-05-06 18:57 | 51.47155 | -0.48359 | 87 ft | 22 kts | 179° |
| 2026-05-06 18:57 | 51.46991 | -0.48357 | 90 ft | 22 kts | 180° |
| 2026-05-06 18:58 | 51.46895 | -0.48367 | 88 ft | 11 kts | 204° |
| 2026-05-06 18:58 | 51.46876 | -0.48497 | 87 ft | 14 kts | 270° |
| 2026-05-06 18:58 | 51.46876 | -0.48667 | 88 ft | 9 kts | 269° |
| 2026-05-06 18:58 | 51.46881 | -0.48705 | 89 ft | 3 kts | 297° |
| 2026-05-06 18:59 | 51.46914 | -0.48717 | 89 ft | 7 kts | 355° |
| 2026-05-06 18:59 | 51.46930 | -0.48718 | 91 ft | 0 kts | 358° |